Time;durP1;ratioP1;P1;durP2;ratioP2;P2;SDS_P1;SDS_P2;PMS_P1;PMS_P2;Temp;Humidity;BMP_temperature;BMP_pressure;BME280_temperature;BME280_humidity;BME280_pressure;Samples;Min_cycle;Max_cycle;Signal;HPM_P1;HPM_P2
2022/06/01 00:01:30;;;;;;;3.50;0.80;;;;;;;14.21;70.25;100089.71;52646;1273;1016120;-66
2022/06/01 00:04:19;;;;;;;3.50;0.90;;;;;;;14.22;71.23;100080.63;52614;1273;1016398;-65
2022/06/01 00:06:49;;;;;;;3.70;0.80;;;;;;;14.21;71.72;100076.90;52531;1273;1016380;-66
2022/06/01 00:09:19;;;;;;;4.10;0.90;;;;;;;14.17;71.78;100075.62;52557;1273;1016622;-65
2022/06/01 00:11:48;;;;;;;3.80;0.70;;;;;;;14.15;72.16;100072.28;52628;1273;1016387;-65
2022/06/01 00:14:18;;;;;;;2.20;0.60;;;;;;;14.12;72.31;100065.45;52597;1273;1016502;-64
2022/06/01 00:16:49;;;;;;;4.70;0.60;;;;;;;14.10;72.76;100066.30;52619;1273;1016959;-64
2022/06/01 00:19:18;;;;;;;1.70;0.60;;;;;;;14.08;72.86;100066.10;52651;1273;1016729;-64
2022/06/01 00:24:38;;;;;;;4.10;0.80;;;;;;;14.01;73.30;100059.55;52579;1273;1016458;-64
2022/06/01 00:27:09;;;;;;;3.20;0.80;;;;;;;14.00;73.47;100061.19;52597;1273;1018905;-65
2022/06/01 00:29:39;;;;;;;2.90;0.80;;;;;;;13.99;73.91;100061.13;52563;1273;1016229;-64
2022/06/01 00:32:11;;;;;;;2.60;0.60;;;;;;;13.97;74.21;100062.86;52554;1274;1016380;-65
2022/06/01 00:34:42;;;;;;;2.40;0.50;;;;;;;13.96;74.22;100070.46;52626;1273;1016577;-65
2022/06/01 00:37:10;;;;;;;;;;;;;;;13.94;74.37;100070.66;52536;1273;1016454;-65
2022/06/01 00:39:40;;;;;;;2.70;0.70;;;;;;;13.91;74.72;100065.66;52564;1274;1016051;-65
2022/06/01 00:42:18;;;;;;;3.40;0.70;;;;;;;13.91;74.83;100068.36;52534;1274;1016624;-65
2022/06/01 00:44:49;;;;;;;3.90;0.80;;;;;;;13.88;74.97;100075.39;52608;1273;1016637;-66
2022/06/01 00:47:19;;;;;;;5.10;0.90;;;;;;;13.88;75.13;100079.27;52665;1273;1016452;-65
2022/06/01 00:49:53;;;;;;;5.80;1.00;;;;;;;13.89;75.23;100075.75;52659;1273;1015923;-65
2022/06/01 00:52:36;;;;;;;3.40;0.60;;;;;;;13.89;75.79;100073.35;52648;1273;1016625;-65
2022/06/01 00:55:10;;;;;;;2.90;0.70;;;;;;;13.88;75.63;100070.50;52665;1273;1016123;-66
2022/06/01 00:57:41;;;;;;;3.10;0.70;;;;;;;13.88;75.86;100075.14;52607;1273;1016580;-66
2022/06/01 01:00:15;;;;;;;4.20;0.60;;;;;;;13.89;75.81;100072.63;52667;1273;1016257;-66
2022/06/01 01:02:45;;;;;;;4.00;0.70;;;;;;;13.89;75.98;100072.63;52562;1273;1016280;-67
2022/06/01 01:05:16;;;;;;;2.40;0.50;;;;;;;13.89;76.07;100074.27;52627;1273;1016221;-67
2022/06/01 01:07:46;;;;;;;5.40;0.60;;;;;;;13.87;76.41;100062.73;52536;1273;1015836;-68
2022/06/01 01:10:17;;;;;;;3.50;0.50;;;;;;;13.86;76.43;100062.23;52636;1273;1016638;-67
2022/06/01 01:13:04;;;;;;;3.00;0.70;;;;;;;13.86;76.83;100059.98;52621;1273;1016956;-64
2022/06/01 01:15:38;;;;;;;1.80;0.60;;;;;;;13.86;77.06;100067.27;52640;1273;1018203;-64
2022/06/01 01:18:11;;;;;;;2.00;0.50;;;;;;;13.84;77.10;100069.88;52592;1273;1016700;-68
2022/06/01 01:20:48;;;;;;;3.00;0.60;;;;;;;13.85;77.08;100065.64;52628;1274;1016504;-64
2022/06/01 01:23:24;;;;;;;3.90;0.80;;;;;;;13.85;77.22;100060.23;52636;1273;1016308;-65
2022/06/01 01:25:53;;;;;;;9.10;0.90;;;;;;;13.85;77.46;100057.11;52582;1273;1016612;-64
2022/06/01 01:28:22;;;;;;;5.10;0.90;;;;;;;13.85;77.53;100044.04;52533;1273;1016588;-63
2022/06/01 01:30:59;;;;;;;5.70;0.90;;;;;;;13.86;77.38;100039.22;52606;1273;1016606;-65
2022/06/01 01:33:30;;;;;;;4.60;0.90;;;;;;;13.88;77.62;100033.14;52556;1273;1016370;-63
2022/06/01 01:36:06;;;;;;;4.80;0.70;;;;;;;13.91;77.68;100028.87;52604;1273;1016080;-65
2022/06/01 01:38:41;;;;;;;4.00;0.90;;;;;;;13.94;77.94;100025.70;52569;1273;1016691;-65
2022/06/01 01:41:14;;;;;;;6.70;0.80;;;;;;;13.94;78.06;100015.14;52515;1273;1016710;-66
2022/06/01 01:43:49;;;;;;;4.50;0.80;;;;;;;13.95;77.86;100007.02;52631;1273;1017636;-66
2022/06/01 01:46:20;;;;;;;4.20;0.90;;;;;;;13.95;78.11;99989.53;52545;1273;1016596;-65
2022/06/01 01:48:50;;;;;;;5.50;0.80;;;;;;;13.94;78.15;99985.70;52595;1273;1016189;-64
2022/06/01 01:51:24;;;;;;;4.00;0.80;;;;;;;13.94;78.22;99980.91;52604;1273;1016249;-64
2022/06/01 01:53:54;;;;;;;3.30;1.00;;;;;;;13.93;78.59;99977.13;52632;1273;1015633;-64
2022/06/01 01:56:43;;;;;;;2.60;0.80;;;;;;;13.89;78.62;99976.00;52573;1273;1016090;-64
2022/06/01 01:59:24;;;;;;;3.80;0.80;;;;;;;13.89;78.58;99967.17;52765;1273;1016459;-65
2022/06/01 02:02:01;;;;;;;3.10;0.90;;;;;;;13.90;78.67;99974.02;52608;1273;1016397;-65
2022/06/01 02:07:38;;;;;;;6.70;0.90;;;;;;;13.87;78.85;99978.10;52518;1274;1019756;-64
2022/06/01 02:12:57;;;;;;;4.90;1.10;;;;;;;13.87;79.04;99958.55;52403;1276;1016340;-64
2022/06/01 02:15:31;;;;;;;4.20;1.00;;;;;;;13.85;79.41;99968.80;52638;1273;1016351;-64
2022/06/01 02:18:03;;;;;;;6.50;1.10;;;;;;;13.81;79.77;99969.62;52755;1273;1016244;-64
2022/06/01 02:20:38;;;;;;;4.10;1.00;;;;;;;13.78;79.80;99961.64;52744;1273;1016590;-64
2022/06/01 02:23:11;;;;;;;3.30;0.90;;;;;;;13.77;79.52;99956.64;52547;1273;1016361;-64
2022/06/01 02:25:45;;;;;;;5.50;1.20;;;;;;;13.77;79.67;99953.34;52692;1273;1016248;-64
2022/06/01 02:28:14;;;;;;;3.60;1.10;;;;;;;13.76;79.56;99951.19;52660;1273;1016996;-64
2022/06/01 02:30:45;;;;;;;6.90;1.40;;;;;;;13.74;79.94;99945.83;52585;1273;1016182;-64
2022/06/01 02:33:17;;;;;;;5.50;1.10;;;;;;;13.69;79.86;99944.95;52691;1273;1016817;-64
2022/06/01 02:35:58;;;;;;;4.20;1.10;;;;;;;13.66;79.74;99943.17;52650;1273;1019161;-64
2022/06/01 02:38:32;;;;;;;4.90;1.20;;;;;;;13.64;80.09;99943.33;52578;1273;1016389;-64
2022/06/01 02:41:02;;;;;;;3.00;1.00;;;;;;;13.61;80.07;99943.46;52667;1273;1016594;-64
2022/06/01 02:43:32;;;;;;;4.90;1.20;;;;;;;13.57;80.07;99942.48;52671;1273;1016631;-64
2022/06/01 02:46:01;;;;;;;3.80;1.10;;;;;;;13.56;80.22;99942.84;52734;1273;1016690;-65
2022/06/01 02:48:31;;;;;;;4.50;1.10;;;;;;;13.54;79.91;99940.55;52734;1273;1016488;-64
2022/06/01 02:51:00;;;;;;;4.20;1.10;;;;;;;13.56;79.79;99928.77;52724;1273;1016717;-64
2022/06/01 02:53:29;;;;;;;5.10;1.10;;;;;;;13.55;79.80;99924.17;52824;1273;1018499;-64
2022/06/01 02:55:58;;;;;;;7.90;1.20;;;;;;;13.53;79.72;99926.67;52748;1273;1016110;-65
2022/06/01 02:58:28;;;;;;;4.20;1.10;;;;;;;13.54;79.77;99932.95;52786;1273;1016569;-65
2022/06/01 03:01:00;;;;;;;5.50;1.70;;;;;;;13.52;79.60;99930.49;52807;1273;1016562;-65
2022/06/01 03:03:30;;;;;;;4.10;1.10;;;;;;;13.49;79.71;99939.11;52760;1273;1020186;-65
2022/06/01 03:05:59;;;;;;;4.30;1.30;;;;;;;13.44;79.91;99936.70;52762;1273;1016649;-64
2022/06/01 03:08:28;;;;;;;4.60;1.30;;;;;;;13.43;79.89;99937.30;52531;1273;1016678;-64
2022/06/01 03:10:58;;;;;;;6.80;1.50;;;;;;;13.44;79.81;99945.62;52678;1273;1016427;-65
2022/06/01 03:13:27;;;;;;;7.80;1.30;;;;;;;13.41;79.78;99954.88;52625;1273;1016535;-65
2022/06/01 03:15:58;;;;;;;5.70;1.20;;;;;;;13.37;79.73;99952.34;52651;1273;1015951;-66
2022/06/01 03:18:27;;;;;;;5.10;1.00;;;;;;;13.35;79.54;99950.69;52586;1273;1016808;-66
2022/06/01 03:20:56;;;;;;;8.70;1.50;;;;;;;13.33;79.53;99940.69;52677;1273;1020093;-65
2022/06/01 03:23:27;;;;;;;4.50;1.20;;;;;;;13.29;79.42;99942.27;52699;1273;1017043;-65
2022/06/01 03:25:57;;;;;;;4.30;1.00;;;;;;;13.23;79.87;99941.98;52558;1273;1015969;-65
2022/06/01 03:28:27;;;;;;;4.50;1.20;;;;;;;13.18;79.72;99946.09;52541;1273;1016409;-64
2022/06/01 03:30:55;;;;;;;;;;;;;;;13.16;79.53;99942.98;52561;1273;1020179;-65
2022/06/01 03:33:24;;;;;;;4.10;1.10;;;;;;;13.12;79.71;99944.44;52601;1273;1016663;-65
2022/06/01 03:35:54;;;;;;;3.20;1.10;;;;;;;13.10;79.92;99945.39;52705;1273;1016008;-65
2022/06/01 03:38:23;;;;;;;5.90;1.10;;;;;;;13.10;79.55;99941.63;52580;1273;1016447;-65
2022/06/01 03:40:52;;;;;;;4.70;1.40;;;;;;;13.11;79.65;99933.54;52651;1273;1016738;-65
2022/06/01 03:43:21;;;;;;;6.10;1.30;;;;;;;13.11;79.94;99931.64;52623;1273;1015790;-65
2022/06/01 03:45:56;;;;;;;4.00;1.20;;;;;;;13.11;79.91;99930.58;52594;1273;1016130;-64
2022/06/01 03:48:29;;;;;;;6.10;1.50;;;;;;;13.12;80.25;99929.92;52529;1273;1020763;-64
2022/06/01 03:50:59;;;;;;;4.80;1.20;;;;;;;13.13;80.15;99933.73;52675;1273;1015879;-65
2022/06/01 03:53:29;;;;;;;4.40;1.20;;;;;;;13.10;80.13;99935.82;52686;1272;1019536;-66
2022/06/01 03:56:08;;;;;;;4.70;1.60;;;;;;;13.12;80.13;99935.41;52546;1273;1020064;-65
2022/06/01 03:58:38;;;;;;;6.00;1.50;;;;;;;13.14;80.38;99937.41;50398;1273;6432330;-65
2022/06/01 04:01:07;;;;;;;5.00;1.50;;;;;;;13.15;80.44;99936.45;52551;1273;1016071;-65
2022/06/01 04:03:36;;;;;;;7.80;1.50;;;;;;;13.16;80.75;99939.21;52711;1273;1016469;-65
2022/06/01 04:06:06;;;;;;;4.20;1.40;;;;;;;13.18;80.60;99945.50;52617;1273;1021033;-65
2022/06/01 04:08:36;;;;;;;7.40;1.40;;;;;;;13.22;80.81;99950.90;52691;1273;1016563;-65
2022/06/01 04:11:06;;;;;;;4.30;1.40;;;;;;;13.23;81.17;99950.29;52667;1273;1016060;-66
2022/06/01 04:13:38;;;;;;;4.90;1.30;;;;;;;13.22;81.41;99946.31;52838;1273;1016189;-66
2022/06/01 04:16:07;;;;;;;4.40;1.50;;;;;;;13.23;81.48;99952.93;52560;1273;1018605;-65
2022/06/01 04:18:38;;;;;;;5.20;1.10;;;;;;;13.24;81.68;99953.04;52609;1273;1016498;-65
2022/06/01 04:21:07;;;;;;;10.50;1.50;;;;;;;13.26;81.81;99949.48;52525;1273;1016549;-65
2022/06/01 04:23:37;;;;;;;4.40;1.40;;;;;;;13.30;81.88;99948.54;52610;1273;1016258;-65
2022/06/01 04:26:06;;;;;;;6.00;1.30;;;;;;;13.35;82.00;99952.89;52602;1273;1016638;-66
2022/06/01 04:28:35;;;;;;;4.00;1.30;;;;;;;13.38;82.11;99958.45;52651;1273;1016547;-64
2022/06/01 04:31:04;;;;;;;4.90;1.40;;;;;;;13.40;82.12;99960.51;52829;1273;1016466;-66
2022/06/01 04:33:34;;;;;;;6.00;1.30;;;;;;;13.47;82.15;99951.73;52633;1273;1016448;-64
2022/06/01 04:36:03;;;;;;;3.80;1.30;;;;;;;13.53;82.25;99954.11;52617;1273;1016670;-65
2022/06/01 04:38:33;;;;;;;3.80;1.40;;;;;;;13.57;82.10;99961.61;52828;1273;1015852;-65
2022/06/01 04:41:02;;;;;;;3.40;1.20;;;;;;;13.63;82.25;99958.36;52636;1273;1016207;-65
2022/06/01 04:43:32;;;;;;;5.00;1.50;;;;;;;13.69;82.39;99949.25;53039;1273;1016536;-65
2022/06/01 04:46:01;;;;;;;4.90;1.40;;;;;;;13.74;82.49;99953.73;52683;1273;1016556;-65
2022/06/01 04:48:31;;;;;;;7.70;1.70;;;;;;;13.80;82.63;99961.10;52603;1274;1015923;-66
2022/06/01 04:51:03;;;;;;;5.70;1.60;;;;;;;13.89;82.54;99964.79;52631;1273;1016267;-65
2022/06/01 04:53:34;;;;;;;6.50;1.70;;;;;;;13.98;82.67;99967.90;52599;1274;1016274;-65
2022/06/01 04:56:10;;;;;;;5.90;1.70;;;;;;;14.07;82.77;99968.84;52598;1273;1016131;-65
2022/06/01 04:58:41;;;;;;;5.20;1.70;;;;;;;14.14;82.74;99974.70;52598;1273;1016922;-64
2022/06/01 05:01:11;;;;;;;4.40;1.40;;;;;;;14.21;82.90;99977.61;52506;1273;1016306;-63
2022/06/01 05:03:56;;;;;;;5.90;1.30;;;;;;;14.25;82.63;99971.79;52724;1273;1015887;-64
2022/06/01 05:06:27;;;;;;;7.20;1.30;;;;;;;14.31;82.47;99971.88;52530;1273;1016312;-64
2022/06/01 05:08:56;;;;;;;8.80;1.40;;;;;;;14.38;82.68;99973.19;52726;1273;1016460;-63
2022/06/01 05:11:32;;;;;;;4.10;1.40;;;;;;;14.46;82.87;99976.71;52809;1273;1018783;-64
2022/06/01 05:14:02;;;;;;;4.50;1.20;;;;;;;14.52;82.64;99981.49;52690;1273;1018228;-65
2022/06/01 05:16:31;;;;;;;4.00;1.30;;;;;;;14.56;82.79;99983.13;52629;1273;1016906;-65
2022/06/01 05:19:01;;;;;;;4.30;1.40;;;;;;;14.61;82.79;99988.19;52584;1273;1016443;-65
2022/06/01 05:21:32;;;;;;;4.90;1.40;;;;;;;14.68;82.84;99993.69;52658;1273;1016495;-64
2022/06/01 05:24:26;;;;;;;4.50;1.40;;;;;;;14.75;82.94;99993.78;52466;1276;1016629;-65
2022/06/01 05:27:14;;;;;;;7.80;2.00;;;;;;;14.82;82.42;99993.86;52618;1276;1016364;-64
2022/06/01 05:30:05;;;;;;;4.00;1.10;;;;;;;14.90;82.35;99995.33;52500;1276;1016529;-65
2022/06/01 05:32:35;;;;;;;4.30;1.30;;;;;;;14.96;82.64;99995.73;52514;1276;1016560;-64
2022/06/01 05:35:20;;;;;;;2.80;1.10;;;;;;;15.05;82.08;99997.43;52345;1276;1016533;-64
2022/06/01 05:37:49;;;;;;;;;;;;;;;15.12;82.01;100002.80;52590;1276;1016102;-64
2022/06/01 05:40:35;;;;;;;5.80;1.10;;;;;;;15.20;81.81;100007.66;52333;1276;1016494;-64
2022/06/01 05:43:23;;;;;;;3.20;1.10;;;;;;;15.26;81.24;100012.50;52461;1276;1016240;-64
2022/06/01 05:45:57;;;;;;;2.80;1.00;;;;;;;15.34;80.99;100013.90;52385;1276;1016800;-65
2022/06/01 05:48:27;;;;;;;2.30;0.70;;;;;;;15.40;80.40;100019.60;52573;1276;1016153;-64
2022/06/01 05:50:56;;;;;;;4.20;0.90;;;;;;;15.48;79.51;100026.35;52545;1276;1016634;-64
2022/06/01 05:53:39;;;;;;;3.20;0.90;;;;;;;15.54;79.09;100032.52;52399;1276;1016768;-64
2022/06/01 05:56:24;;;;;;;3.00;0.90;;;;;;;15.59;78.73;100037.66;52504;1273;1020801;-64
2022/06/01 05:59:11;;;;;;;5.40;0.70;;;;;;;15.64;78.04;100038.00;52548;1274;1016896;-63
2022/06/01 06:01:56;;;;;;;5.60;0.80;;;;;;;15.68;77.53;100040.13;52530;1273;1016600;-64
2022/06/01 06:04:25;;;;;;;3.30;0.80;;;;;;;15.71;77.67;100040.31;52682;1273;1016508;-64
2022/06/01 06:06:54;;;;;;;4.40;0.70;;;;;;;15.78;77.56;100040.89;52738;1273;1016601;-63
2022/06/01 06:09:25;;;;;;;3.70;0.60;;;;;;;15.86;77.14;100044.90;52563;1274;1016106;-63
2022/06/01 06:11:54;;;;;;;;;;;;;;;15.90;76.52;100043.63;52691;1273;1016669;-63
2022/06/01 06:14:23;;;;;;;2.50;0.80;;;;;;;15.94;76.04;100044.52;53139;1273;1016421;-63
2022/06/01 06:16:52;;;;;;;4.20;0.90;;;;;;;15.98;75.96;100042.57;53142;1273;1016073;-63
2022/06/01 06:19:23;;;;;;;3.70;1.10;;;;;;;16.04;75.89;100038.27;52639;1273;1016221;-62
2022/06/01 06:21:53;;;;;;;5.40;1.00;;;;;;;16.10;75.28;100041.36;52742;1273;1016130;-64
2022/06/01 06:24:25;;;;;;;5.00;0.80;;;;;;;16.14;75.00;100042.00;52635;1273;1016125;-64
2022/06/01 06:26:54;;;;;;;6.50;0.90;;;;;;;16.19;74.43;100039.05;52742;1273;1016914;-63
2022/06/01 06:29:23;;;;;;;4.70;1.00;;;;;;;16.25;74.13;100038.87;52707;1273;1016671;-63
2022/06/01 06:31:52;;;;;;;4.50;1.00;;;;;;;16.34;74.21;100044.79;52738;1273;1015920;-64
2022/06/01 06:34:22;;;;;;;4.10;1.20;;;;;;;16.42;73.16;100046.46;52720;1273;1016677;-63
2022/06/01 06:36:51;;;;;;;4.70;1.80;;;;;;;16.48;72.45;100045.91;52622;1273;1016186;-63
2022/06/01 06:39:20;;;;;;;4.40;1.10;;;;;;;16.51;71.92;100044.62;52614;1273;1016761;-62
2022/06/01 06:41:49;;;;;;;6.80;1.20;;;;;;;16.55;71.99;100047.06;52765;1273;1016605;-62
2022/06/01 06:44:19;;;;;;;4.10;1.10;;;;;;;16.62;71.83;100050.13;52663;1274;1016682;-63
2022/06/01 06:46:49;;;;;;;2.70;0.90;;;;;;;16.67;71.14;100051.05;52575;1273;1017448;-64
2022/06/01 06:49:18;;;;;;;3.60;1.10;;;;;;;16.71;70.42;100051.78;52721;1273;1016637;-64
2022/06/01 06:51:48;;;;;;;4.90;1.40;;;;;;;16.74;70.43;100047.81;52628;1273;1016735;-63
2022/06/01 06:54:18;;;;;;;7.50;0.90;;;;;;;16.79;70.38;100049.87;52707;1273;1018509;-64
2022/06/01 06:56:47;;;;;;;4.10;1.00;;;;;;;16.83;70.00;100053.25;52622;1273;1016359;-63
2022/06/01 06:59:16;;;;;;;5.30;1.10;;;;;;;16.88;69.75;100051.62;52592;1273;1016353;-63
2022/06/01 07:01:46;;;;;;;5.80;1.20;;;;;;;16.93;69.46;100052.86;52660;1273;1016303;-63
2022/06/01 07:04:16;;;;;;;4.40;1.20;;;;;;;16.99;69.54;100058.73;52637;1273;1018010;-63
2022/06/01 07:06:45;;;;;;;2.70;0.90;;;;;;;17.05;68.86;100057.27;52609;1273;1016073;-63
2022/06/01 07:09:14;;;;;;;7.90;1.30;;;;;;;17.08;69.20;100058.25;52656;1273;1016502;-63
2022/06/01 07:11:43;;;;;;;6.30;1.70;;;;;;;17.14;68.71;100063.63;52650;1273;1016229;-63
2022/06/01 07:14:13;;;;;;;4.60;1.30;;;;;;;17.20;68.32;100061.55;52701;1273;1016494;-63
2022/06/01 07:16:42;;;;;;;5.50;1.40;;;;;;;17.27;68.18;100060.98;52778;1273;1016360;-64
2022/06/01 07:19:11;;;;;;;4.90;1.30;;;;;;;17.33;67.71;100054.23;52581;1273;1016425;-63
2022/06/01 07:21:41;;;;;;;7.00;1.20;;;;;;;17.39;67.64;100058.31;52684;1273;1016043;-63
2022/06/01 07:24:10;;;;;;;4.10;0.80;;;;;;;17.47;67.62;100059.21;52691;1273;1016516;-63
2022/06/01 07:26:43;;;;;;;5.70;1.10;;;;;;;17.56;67.14;100062.26;52566;1273;1016562;-63
2022/06/01 07:29:14;;;;;;;8.50;1.00;;;;;;;17.62;66.88;100057.04;52675;1273;1016593;-63
2022/06/01 07:31:44;;;;;;;5.50;0.90;;;;;;;17.70;66.02;100061.52;52633;1273;1018679;-63
2022/06/01 07:34:14;;;;;;;3.90;1.30;;;;;;;17.75;65.40;100069.30;52599;1273;1016730;-63
2022/06/01 07:36:45;;;;;;;4.00;1.00;;;;;;;17.79;65.19;100063.91;52631;1273;1016691;-64
2022/06/01 07:44:53;;;;;;;;;;;;;;;17.88;63.83;100063.70;52601;1273;1016817;-63
2022/06/01 07:47:23;;;;;;;2.60;0.80;;;;;;;17.95;63.23;100066.06;52543;1273;1016488;-62
2022/06/01 07:49:52;;;;;;;9.50;1.10;;;;;;;18.03;63.74;100065.23;52624;1273;1016027;-63
2022/06/01 07:52:23;;;;;;;5.00;1.00;;;;;;;18.18;64.02;100060.22;52635;1274;1016462;-63
2022/06/01 07:54:54;;;;;;;3.50;1.00;;;;;;;18.36;63.36;100064.33;52559;1274;1016469;-63
2022/06/01 07:57:25;;;;;;;3.10;0.80;;;;;;;18.46;62.41;100067.44;52583;1274;1019660;-64
2022/06/01 07:59:54;;;;;;;5.90;1.10;;;;;;;18.47;62.36;100068.55;52569;1275;1016708;-64
2022/06/01 08:02:23;;;;;;;2.70;0.70;;;;;;;18.44;62.01;100065.81;52587;1274;1016596;-63
2022/06/01 08:04:52;;;;;;;6.00;1.20;;;;;;;18.39;62.00;100068.08;52619;1275;1016452;-64
2022/06/01 08:07:22;;;;;;;3.50;1.00;;;;;;;18.33;62.03;100063.48;52646;1273;1016881;-63
2022/06/01 08:09:52;;;;;;;3.90;1.00;;;;;;;18.28;62.03;100070.61;52660;1273;1016672;-63
2022/06/01 08:15:22;;;;;;;5.10;1.10;;;;;;;18.26;62.10;100072.29;52380;1280;1016358;-63
2022/06/01 08:17:52;;;;;;;3.90;1.00;;;;;;;18.36;62.00;100077.73;52530;1279;1016436;-64
2022/06/01 08:20:21;;;;;;;2.70;0.90;;;;;;;18.45;61.73;100079.48;52642;1279;1016551;-63
2022/06/01 08:22:50;;;;;;;5.20;1.20;;;;;;;18.54;61.47;100081.76;52543;1279;1016919;-63
2022/06/01 08:25:21;;;;;;;4.80;1.10;;;;;;;18.59;60.54;100083.77;52488;1279;1016713;-64
2022/06/01 08:27:51;;;;;;;8.60;1.10;;;;;;;18.58;60.79;100082.77;52638;1279;1016684;-63
2022/06/01 08:30:23;;;;;;;4.00;0.90;;;;;;;18.67;61.03;100082.45;52533;1281;1016328;-64
2022/06/01 08:32:53;;;;;;;6.10;1.10;;;;;;;18.76;59.84;100084.22;52469;1281;1016805;-64
2022/06/01 08:35:26;;;;;;;9.80;1.20;;;;;;;18.79;59.28;100086.90;52544;1279;1017332;-64
2022/06/01 08:37:55;;;;;;;3.50;1.00;;;;;;;18.79;58.83;100091.21;52530;1279;1016445;-65
2022/06/01 08:40:28;;;;;;;2.70;0.70;;;;;;;18.79;58.59;100092.35;52547;1279;1016445;-64
2022/06/01 08:43:02;;;;;;;7.60;1.00;;;;;;;18.87;58.88;100096.17;52450;1279;1016161;-65
2022/06/01 08:45:31;;;;;;;3.50;0.90;;;;;;;18.96;59.09;100093.70;52471;1279;1016600;-64
2022/06/01 08:48:01;;;;;;;4.50;1.10;;;;;;;19.05;58.40;100100.17;52688;1273;1019593;-65
2022/06/01 08:50:34;;;;;;;4.60;0.90;;;;;;;19.10;57.85;100098.17;52751;1273;1016948;-66
2022/06/01 08:53:07;;;;;;;5.10;1.10;;;;;;;19.08;57.78;100095.55;52635;1273;1015773;-65
2022/06/01 08:55:47;;;;;;;3.50;1.00;;;;;;;19.03;57.43;100092.91;52665;1273;1016336;-65
2022/06/01 08:58:19;;;;;;;5.20;0.90;;;;;;;19.02;57.44;100094.01;52654;1273;1016306;-65
2022/06/01 09:00:58;;;;;;;5.40;1.10;;;;;;;19.13;57.28;100098.64;52683;1273;1016646;-65
2022/06/01 09:03:34;;;;;;;6.90;1.00;;;;;;;19.25;57.38;100100.94;52699;1273;1016402;-65
2022/06/01 09:06:11;;;;;;;5.30;1.20;;;;;;;19.38;57.04;100098.88;52600;1273;1016575;-66
2022/06/01 09:08:47;;;;;;;3.70;0.90;;;;;;;19.51;57.07;100097.97;52750;1273;1017006;-65
2022/06/01 09:11:23;;;;;;;4.10;1.10;;;;;;;19.63;56.81;100097.98;52624;1273;1016218;-64
2022/06/01 09:13:58;;;;;;;6.00;1.00;;;;;;;19.70;55.93;100097.25;52581;1273;1016599;-64
2022/06/01 09:16:32;;;;;;;6.20;1.20;;;;;;;19.73;55.35;100091.59;52695;1273;1016609;-65
2022/06/01 09:19:02;;;;;;;3.30;0.90;;;;;;;19.75;55.46;100098.30;52600;1273;1019877;-65
2022/06/01 09:24:24;;;;;;;4.70;0.80;;;;;;;19.78;54.23;100096.52;52647;1273;1016463;-64
2022/06/01 09:27:02;;;;;;;3.10;0.80;;;;;;;19.89;54.14;100093.16;52633;1273;1016755;-65
2022/06/01 09:29:33;;;;;;;4.10;0.60;;;;;;;20.01;54.02;100093.36;52625;1273;1016058;-64
2022/06/01 09:32:05;;;;;;;3.40;0.60;;;;;;;20.09;51.50;100091.33;52741;1273;1016615;-65
2022/06/01 09:34:41;;;;;;;4.80;0.70;;;;;;;20.08;51.12;100082.85;52705;1273;1020025;-66
2022/06/01 09:37:14;;;;;;;2.30;0.60;;;;;;;20.19;50.73;100090.36;52636;1273;1016227;-65
2022/06/01 09:39:53;;;;;;;3.40;0.70;;;;;;;20.24;49.85;100089.27;52731;1273;1016268;-65
2022/06/01 09:42:28;;;;;;;2.50;0.70;;;;;;;20.28;50.20;100086.96;52589;1273;1016615;-65
2022/06/01 09:45:00;;;;;;;2.60;0.40;;;;;;;20.35;48.90;100087.79;52672;1273;1016702;-65
2022/06/01 09:47:39;;;;;;;3.30;0.60;;;;;;;20.29;48.03;100089.48;52652;1273;1016540;-66
2022/06/01 09:50:26;;;;;;;4.10;0.60;;;;;;;20.13;47.64;100081.86;52546;1273;1016527;-64
2022/06/01 09:52:59;;;;;;;1.40;0.50;;;;;;;19.99;47.63;100080.98;52593;1273;1016085;-66
2022/06/01 09:55:31;;;;;;;2.50;0.50;;;;;;;19.97;47.88;100079.95;52751;1273;1017006;-65
2022/06/01 09:58:09;;;;;;;2.40;0.50;;;;;;;20.02;48.14;100077.94;52679;1274;1016361;-66
2022/06/01 10:06:25;;;;;;;1.40;0.50;;;;;;;20.06;47.36;100084.39;52607;1273;1016619;-65
2022/06/01 10:09:01;;;;;;;0.90;0.40;;;;;;;20.06;46.99;100084.80;52628;1273;1016430;-65
2022/06/01 10:11:35;;;;;;;2.70;0.60;;;;;;;20.05;47.13;100086.00;52627;1273;1017085;-66
2022/06/01 10:14:25;;;;;;;3.90;0.50;;;;;;;20.04;45.84;100091.34;52655;1274;1016679;-65
2022/06/01 10:17:21;;;;;;;2.20;0.30;;;;;;;19.93;45.15;100093.18;52641;1273;1017114;-64
2022/06/01 10:19:58;;;;;;;1.60;0.40;;;;;;;19.86;45.16;100089.91;52635;1273;1016467;-65
2022/06/01 10:22:35;;;;;;;1.40;0.40;;;;;;;19.84;45.13;100090.17;52560;1273;1016636;-65
2022/06/01 10:25:11;;;;;;;3.50;0.50;;;;;;;19.84;45.40;100089.92;52642;1273;1016062;-65
2022/06/01 10:27:51;;;;;;;3.70;0.40;;;;;;;19.86;45.09;100092.91;52715;1273;1016194;-65
2022/06/01 10:30:24;;;;;;;1.70;0.40;;;;;;;19.93;45.44;100093.44;52657;1273;1016469;-65
2022/06/01 10:32:59;;;;;;;1.90;0.40;;;;;;;20.06;44.64;100096.59;52723;1273;1016862;-65
2022/06/01 10:35:36;;;;;;;6.20;0.70;;;;;;;20.17;44.60;100099.14;52678;1273;1016563;-65
2022/06/01 10:38:14;;;;;;;3.80;0.40;;;;;;;20.25;44.64;100107.30;52551;1273;1016691;-65
2022/06/01 10:40:50;;;;;;;3.00;0.60;;;;;;;20.23;43.81;100110.06;52564;1274;1016320;-66
2022/06/01 10:43:32;;;;;;;1.30;0.40;;;;;;;20.17;44.11;100113.02;52558;1275;1016525;-65
2022/06/01 10:46:21;;;;;;;2.80;0.60;;;;;;;20.11;44.28;100114.33;52471;1274;1015900;-65
2022/06/01 10:49:16;;;;;;;4.70;1.60;;;;;;;20.06;44.29;100118.66;52628;1274;1016485;-65
2022/06/01 10:51:55;;;;;;;3.50;0.60;;;;;;;19.99;44.13;100130.54;52622;1273;1016735;-65
2022/06/01 10:54:32;;;;;;;2.20;0.50;;;;;;;19.97;44.72;100131.68;52587;1273;1016773;-65
2022/06/01 10:57:07;;;;;;;5.70;0.50;;;;;;;19.98;44.40;100129.59;52649;1273;1016237;-65
2022/06/01 10:59:39;;;;;;;1.80;0.50;;;;;;;20.00;44.76;100127.64;52686;1274;1016387;-65
2022/06/01 11:02:24;;;;;;;5.20;0.50;;;;;;;20.03;45.63;100124.95;52722;1274;1016718;-65
2022/06/01 11:05:13;;;;;;;2.80;0.60;;;;;;;20.02;46.56;100124.14;52731;1273;1016338;-65
2022/06/01 11:08:22;;;;;;;3.40;0.90;;;;;;;20.05;48.29;100119.55;52686;1273;1016267;-65
2022/06/01 11:11:02;;;;;;;3.30;0.80;;;;;;;20.08;49.59;100124.42;52503;1279;1016654;-65
2022/06/01 11:13:44;;;;;;;2.70;0.70;;;;;;;20.17;50.36;100126.87;52525;1280;1016680;-66
2022/06/01 11:16:29;;;;;;;3.80;0.80;;;;;;;20.32;50.68;100126.16;52511;1281;1016670;-65
2022/06/01 11:19:08;;;;;;;3.40;0.70;;;;;;;20.53;51.00;100119.79;52443;1281;1017061;-63
2022/06/01 11:21:45;;;;;;;5.10;0.70;;;;;;;20.72;50.28;100114.69;52567;1278;1016289;-65
2022/06/01 11:24:32;;;;;;;5.30;0.60;;;;;;;20.85;50.10;100116.48;52504;1281;1016690;-65
2022/06/01 11:27:16;;;;;;;2.40;0.70;;;;;;;20.95;49.97;100115.66;52466;1279;1016278;-65
2022/06/01 11:30:00;;;;;;;3.40;0.70;;;;;;;21.09;50.21;100108.95;52457;1279;1016334;-65
2022/06/01 11:32:36;;;;;;;5.20;0.70;;;;;;;21.22;50.19;100111.17;52581;1281;1016846;-67
2022/06/01 11:35:14;;;;;;;2.80;0.60;;;;;;;21.29;49.22;100114.19;52667;1279;1018148;-64
2022/06/01 11:37:48;;;;;;;2.50;0.30;;;;;;;21.26;47.80;100115.15;52555;1282;1016247;-65
2022/06/01 11:40:23;;;;;;;2.60;0.50;;;;;;;21.24;47.21;100112.98;52608;1281;1016432;-64
2022/06/01 11:42:57;;;;;;;1.60;0.50;;;;;;;21.21;47.33;100114.61;52456;1280;1015997;-65
2022/06/01 11:45:33;;;;;;;4.50;0.40;;;;;;;21.22;47.32;100110.09;52559;1281;1016329;-65
2022/06/01 11:48:07;;;;;;;3.80;0.70;;;;;;;21.26;47.51;100112.31;52582;1273;1016279;-66
2022/06/01 11:51:10;;;;;;;3.00;0.60;;;;;;;21.26;46.73;100114.27;52602;1274;1016706;-66
2022/06/01 11:53:54;;;;;;;3.40;0.40;;;;;;;21.24;46.47;100106.23;52602;1273;1016720;-66
2022/06/01 11:56:34;;;;;;;2.00;0.50;;;;;;;21.19;46.06;100106.65;52627;1273;1016361;-65
2022/06/01 11:59:22;;;;;;;1.90;0.50;;;;;;;21.19;45.66;100104.91;52586;1275;1016521;-66
2022/06/01 12:02:04;;;;;;;1.70;0.40;;;;;;;21.16;45.61;100108.71;52648;1273;1016636;-66
2022/06/01 12:04:50;;;;;;;4.40;0.50;;;;;;;21.17;45.85;100110.90;52610;1275;1016071;-67
2022/06/01 12:07:27;;;;;;;1.50;0.50;;;;;;;21.20;46.04;100115.48;52598;1273;1016593;-65